Time;durP1;ratioP1;P1;durP2;ratioP2;P2;SDS_P1;SDS_P2;PMS_P1;PMS_P2;Temp;Humidity;BMP_temperature;BMP_pressure;BME280_temperature;BME280_humidity;BME280_pressure;Samples;Min_cycle;Max_cycle;Signal;HPM_P1;HPM_P2
2021/11/11 00:09:24;;;;;;;10.02;3.90;;;7.10;99.90;;;;;;25808241;23;20122;-54
2021/11/11 00:19:27;;;;;;;10.85;5.30;;;7.00;99.90;;;;;;25783116;22;20024;-55
2021/11/11 00:29:31;;;;;;;8.90;4.68;;;6.80;99.90;;;;;;25836587;23;20008;-54
2021/11/11 00:39:34;;;;;;;10.45;4.28;;;6.60;99.90;;;;;;25783388;23;20012;-58
2021/11/11 00:49:38;;;;;;;11.70;4.75;;;6.50;99.90;;;;;;25836452;23;20436;-54
2021/11/11 00:59:42;;;;;;;11.77;4.80;;;6.40;99.90;;;;;;25783454;23;20012;-57
2021/11/11 01:09:44;;;;;;;9.45;5.13;;;6.40;99.90;;;;;;25832991;23;20070;-53
2021/11/11 01:19:48;;;;;;;9.30;4.65;;;6.40;99.90;;;;;;25833064;22;20020;-53
2021/11/11 01:29:51;;;;;;;14.50;4.90;;;6.60;99.90;;;;;;25807056;23;20004;-57
2021/11/11 01:39:56;;;;;;;11.65;4.47;;;7.00;99.90;;;;;;25808770;23;20016;-56
2021/11/11 01:50:05;;;;;;;9.15;4.32;;;7.10;99.90;;;;;;25807053;23;20016;-53
2021/11/11 02:00:25;;;;;;;13.00;4.72;;;7.20;99.90;;;;;;25806353;23;20272;-53
2021/11/11 02:10:30;;;;;;;7.93;4.57;;;7.30;99.90;;;;;;25832527;23;20442;-57
2021/11/11 02:20:37;;;;;;;11.43;6.05;;;7.50;99.90;;;;;;25806585;22;20020;-54
2021/11/11 02:30:49;;;;;;;12.40;4.45;;;7.30;99.90;;;;;;25834053;23;20283;-52
2021/11/11 02:40:56;;;;;;;12.00;4.93;;;7.00;99.90;;;;;;25788930;23;20198;-56
2021/11/11 02:50:59;;;;;;;11.93;5.18;;;6.60;99.90;;;;;;25841028;23;20016;-56
2021/11/11 03:01:05;;;;;;;14.15;5.78;;;6.30;99.90;;;;;;25812486;23;20008;-58
2021/11/11 03:11:09;;;;;;;13.75;7.05;;;6.20;99.90;;;;;;25812294;23;20008;-54
2021/11/11 03:21:36;;;;;;;10.45;5.32;;;6.10;99.90;;;;;;25825696;22;20016;-54
2021/11/11 03:31:40;;;;;;;13.02;5.43;;;6.20;99.90;;;;;;25837403;23;20008;-54
2021/11/11 03:41:45;;;;;;;12.52;6.40;;;6.20;99.90;;;;;;25786197;23;20039;-54
2021/11/11 03:51:49;;;;;;;10.93;5.55;;;6.40;99.90;;;;;;25785792;23;20012;-55
2021/11/11 04:01:53;;;;;;;12.25;5.25;;;6.70;99.90;;;;;;25809051;23;20008;-55
2021/11/11 04:11:56;;;;;;;11.35;5.35;;;7.30;99.90;;;;;;25835800;23;20082;-52
2021/11/11 04:21:59;;;;;;;12.20;4.53;;;7.50;99.90;;;;;;25808139;22;20020;-53
2021/11/11 04:32:06;;;;;;;9.45;5.18;;;7.90;99.90;;;;;;25834625;23;20069;-56
2021/11/11 05:02:38;;;;;;;8.82;4.28;;;8.40;99.90;;;;;;25783115;23;20066;-57
2021/11/11 05:12:42;;;;;;;8.98;4.22;;;8.50;99.90;;;;;;25835931;23;20016;-56
2021/11/11 05:22:45;;;;;;;8.10;3.70;;;8.40;99.90;;;;;;25782632;23;20078;-55
2021/11/11 05:32:49;;;;;;;9.60;4.65;;;8.30;99.90;;;;;;25806318;23;20397;-58
2021/11/11 05:42:56;;;;;;;8.50;4.10;;;8.00;99.90;;;;;;25782068;23;20082;-55
2021/11/11 05:53:00;;;;;;;7.68;4.10;;;8.30;99.90;;;;;;25782139;23;20058;-58
2021/11/11 06:03:04;;;;;;;10.50;4.50;;;8.60;99.90;;;;;;25782618;23;20496;-59
2021/11/11 06:13:08;;;;;;;5.40;3.22;;;8.60;99.90;;;;;;25814562;23;20410;-52
2021/11/11 06:23:12;;;;;;;7.75;3.63;;;8.40;99.90;;;;;;25813250;23;20046;-56
2021/11/11 06:33:16;;;;;;;12.57;5.30;;;8.00;99.90;;;;;;25813375;23;20389;-57
2021/11/11 06:43:21;;;;;;;9.10;5.22;;;7.40;99.90;;;;;;25811973;23;20020;-55
2021/11/11 06:53:24;;;;;;;8.45;4.57;;;7.50;99.90;;;;;;25839304;23;20020;-56
2021/11/11 07:03:29;;;;;;;10.07;4.20;;;7.90;99.90;;;;;;25838419;23;20012;-52
2021/11/11 07:13:33;;;;;;;8.77;3.58;;;8.40;99.90;;;;;;25812470;23;20019;-52
2021/11/11 07:23:36;;;;;;;9.52;3.60;;;9.00;99.90;;;;;;25836020;23;20096;-58
2021/11/11 07:33:39;;;;;;;6.35;3.35;;;9.40;99.90;;;;;;25838313;23;20311;-55
2021/11/11 07:43:42;;;;;;;6.15;3.28;;;9.80;99.90;;;;;;25838156;23;20016;-58
2021/11/11 07:53:45;;;;;;;5.35;2.40;;;10.30;99.90;;;;;;25837614;23;20036;-59
2021/11/11 08:03:49;;;;;;;5.25;3.10;;;10.70;99.90;;;;;;25835722;23;20004;-57
2021/11/11 08:13:52;;;;;;;5.38;2.45;;;11.10;99.90;;;;;;25835784;23;20042;-58
2021/11/11 08:23:56;;;;;;;5.55;2.25;;;11.60;99.90;;;;;;25836790;23;20086;-58
2021/11/11 08:33:58;;;;;;;6.03;2.63;;;11.50;99.90;;;;;;25834929;23;20008;-57
2021/11/11 08:44:05;;;;;;;4.60;2.40;;;11.80;99.90;;;;;;25835611;23;20074;-59
2021/11/11 08:54:08;;;;;;;4.43;2.03;;;12.50;99.90;;;;;;25809946;23;20412;-56
2021/11/11 09:04:13;;;;;;;5.85;2.35;;;13.00;99.90;;;;;;25834268;23;20070;-59
2021/11/11 09:14:17;;;;;;;6.20;2.38;;;13.20;99.90;;;;;;25834815;23;20047;-58
2021/11/11 09:24:20;;;;;;;5.25;2.10;;;13.60;99.90;;;;;;25833745;23;20024;-58
2021/11/11 09:34:23;;;;;;;5.88;2.22;;;13.70;99.90;;;;;;25835919;23;20016;-57
2021/11/11 09:44:27;;;;;;;6.10;2.53;;;13.70;99.90;;;;;;25841555;23;20020;-54
2021/11/11 10:04:36;;;;;;;7.43;2.85;;;13.20;99.90;;;;;;25841036;23;20008;-56
2021/11/11 10:14:40;;;;;;;4.22;2.25;;;13.10;99.90;;;;;;25843446;23;20058;-58
2021/11/11 10:24:47;;;;;;;3.85;2.13;;;13.30;99.90;;;;;;25839914;23;20020;-56
2021/11/11 10:34:58;;;;;;;5.32;2.45;;;13.40;99.90;;;;;;25840826;23;20322;-57
2021/11/11 10:45:07;;;;;;;8.30;2.67;;;13.20;99.90;;;;;;25839390;23;20030;-58
2021/11/11 10:55:25;;;;;;;6.43;3.00;;;13.30;99.90;;;;;;25842127;23;20426;-54
2021/11/11 11:05:48;;;;;;;6.55;1.98;;;13.60;99.90;;;;;;25840445;23;20020;-56
2021/11/11 11:15:58;;;;;;;6.32;2.70;;;13.70;99.90;;;;;;25838977;23;20016;-55
2021/11/11 11:26:09;;;;;;;8.23;2.88;;;13.90;99.90;;;;;;25839413;23;20020;-53
2021/11/11 11:36:16;;;;;;;6.22;1.73;;;14.30;99.90;;;;;;25838715;23;20027;-58
2021/11/11 11:46:24;;;;;;;5.60;2.13;;;14.10;99.90;;;;;;25838265;23;20012;-53
2021/11/11 11:56:31;;;;;;;4.68;1.90;;;14.10;99.90;;;;;;25837954;23;20325;-59
2021/11/11 12:06:50;;;;;;;3.53;2.03;;;14.10;99.90;;;;;;25837161;23;20089;-58
2021/11/11 12:48:34;;;;;;;4.37;2.10;;;14.60;99.90;;;;;;25451227;23;20021;-56
2021/11/11 12:58:47;;;;;;;5.10;2.08;;;14.60;99.90;;;;;;25451272;23;20039;-56
2021/11/11 13:08:52;;;;;;;3.38;1.60;;;14.50;99.90;;;;;;25597791;23;20013;-58
2021/11/11 13:18:57;;;;;;;5.35;2.53;;;14.40;99.90;;;;;;25704196;22;20016;-57
2021/11/11 14:00:25;;;;;;;2.70;1.40;;;14.00;99.90;;;;;;25833079;23;20016;-55
2021/11/11 16:26:17;;;;;;;3.90;1.83;;;10.10;99.90;;;;;;25548566;22;20025;-54
2021/11/11 16:36:21;;;;;;;8.55;2.53;;;9.80;99.90;;;;;;25725697;23;20015;-56
2021/11/11 16:46:24;;;;;;;2.97;1.85;;;9.30;99.90;;;;;;25807689;23;20016;-57
2021/11/11 16:56:27;;;;;;;4.45;2.38;;;8.80;99.90;;;;;;25832919;23;20016;-56
2021/11/11 17:06:30;;;;;;;6.47;1.92;;;8.40;99.90;;;;;;25834418;23;20372;-55
2021/11/11 17:16:36;;;;;;;4.03;2.03;;;8.20;99.90;;;;;;25833762;23;20069;-58
2021/11/11 17:36:46;;;;;;;11.15;2.47;;;8.60;99.90;;;;;;25832383;23;20012;-55
2021/11/11 17:46:57;;;;;;;5.65;2.17;;;8.50;99.90;;;;;;25832371;23;20497;-55
2021/11/11 17:57:01;;;;;;;7.55;2.00;;;8.30;99.90;;;;;;25832350;23;20012;-54
2021/11/11 18:07:07;;;;;;;4.45;1.98;;;8.10;99.90;;;;;;25838772;23;20011;-54
2021/11/11 18:17:10;;;;;;;2.90;2.05;;;8.20;99.90;;;;;;25839815;22;20093;-53
2021/11/11 18:27:13;;;;;;;9.05;1.98;;;8.50;99.90;;;;;;25827262;23;20401;-54
2021/11/11 18:37:24;;;;;;;8.27;2.33;;;8.80;99.90;;;;;;25839111;23;20074;-57
2021/11/11 18:47:29;;;;;;;3.60;1.80;;;9.20;99.90;;;;;;25811764;23;20012;-63
2021/11/11 18:57:33;;;;;;;3.85;1.90;;;9.50;99.90;;;;;;25837583;23;20016;-63
2021/11/11 19:07:41;;;;;;;4.63;2.08;;;9.60;99.90;;;;;;25839685;23;20445;-63
2021/11/11 19:17:48;;;;;;;6.20;1.65;;;9.80;99.90;;;;;;25809734;22;20107;-63
2021/11/11 19:27:52;;;;;;;4.50;1.98;;;9.80;99.90;;;;;;25836568;23;20075;-63
2021/11/11 19:58:36;;;;;;;3.40;1.83;;;9.50;99.90;;;;;;25811526;23;20008;-64
2021/11/11 20:19:19;;;;;;;6.20;2.47;;;8.70;99.90;;;;;;25807236;23;20342;-60
2021/11/11 20:29:38;;;;;;;4.40;2.00;;;8.30;99.90;;;;;;25833843;23;20078;-64
2021/11/11 21:00:27;;;;;;;5.13;2.50;;;7.60;99.90;;;;;;25835553;23;20020;-59
2021/11/11 21:20:41;;;;;;;5.10;2.78;;;8.00;99.90;;;;;;25834098;23;20046;-59
2021/11/11 21:30:44;;;;;;;7.20;2.92;;;7.90;99.90;;;;;;25833614;23;20063;-56
2021/11/11 21:41:03;;;;;;;3.70;2.30;;;7.70;99.90;;;;;;25840071;22;20341;-56
2021/11/11 21:51:06;;;;;;;6.20;2.47;;;7.70;99.90;;;;;;25790975;23;20004;-57
2021/11/11 22:32:25;;;;;;;6.47;2.03;;;7.80;99.90;;;;;;25826447;23;20115;-58
2021/11/11 22:42:28;;;;;;;4.65;2.10;;;8.20;99.90;;;;;;25840536;23;20012;-58
2021/11/11 22:52:31;;;;;;;3.30;1.67;;;8.30;99.90;;;;;;25840842;23;20038;-55
2021/11/11 23:02:42;;;;;;;4.50;2.17;;;8.50;99.90;;;;;;25839053;23;20515;-59
2021/11/11 23:23:22;;;;;;;5.55;2.30;;;7.60;99.90;;;;;;25837673;23;20020;-54
2021/11/11 23:33:28;;;;;;;8.63;2.53;;;7.40;99.90;;;;;;25812459;23;20047;-55
2021/11/11 23:43:32;;;;;;;3.65;2.30;;;7.30;99.90;;;;;;25839945;23;20310;-57
